createdAt,value
2018-03-19T00:03:19.500Z,22.60
2018-03-19T00:06:42.860Z,23.73
2018-03-19T00:10:06.199Z,24.40
2018-03-19T00:13:29.487Z,24.33
2018-03-19T00:16:52.777Z,22.67
2018-03-19T00:20:16.041Z,22.27
2018-03-19T00:23:39.347Z,24.57
2018-03-19T00:27:02.638Z,21.90
2018-03-19T00:30:25.972Z,23.60
2018-03-19T00:33:49.271Z,23.17
2018-03-19T00:37:12.568Z,22.20
2018-03-19T00:40:35.941Z,22.27
2018-03-19T00:43:59.445Z,22.37
2018-03-19T00:47:23.495Z,23.70
2018-03-19T00:50:48.045Z,21.63
2018-03-19T00:54:12.115Z,21.27
2018-03-19T00:57:35.498Z,21.10
2018-03-19T01:00:59.602Z,23.73
2018-03-19T01:04:22.941Z,24.00
2018-03-19T01:07:46.238Z,20.60
2018-03-19T01:11:09.551Z,22.97
2018-03-19T01:14:32.920Z,25.73
2018-03-19T01:17:56.287Z,26.37
2018-03-19T01:21:20.416Z,25.50
2018-03-19T01:24:43.741Z,24.37
2018-03-19T01:28:07.924Z,24.00
2018-03-19T01:31:31.935Z,21.37
2018-03-19T01:34:55.244Z,25.03
2018-03-19T01:38:18.603Z,23.93
2018-03-19T01:41:41.920Z,22.33
2018-03-19T01:45:05.219Z,24.03
2018-03-19T01:48:28.516Z,25.40
2018-03-19T01:51:52.849Z,23.03
2018-03-19T01:55:16.174Z,24.33
2018-03-19T01:58:39.571Z,24.00
2018-03-19T02:02:02.890Z,23.23
2018-03-19T02:05:26.250Z,23.33
2018-03-19T02:08:49.607Z,23.60
2018-03-19T02:12:12.945Z,24.07
2018-03-19T02:15:37.042Z,23.43
2018-03-19T02:19:00.394Z,21.20
2018-03-19T02:22:23.724Z,24.77
2018-03-19T02:25:47.054Z,24.37
2018-03-19T02:29:10.424Z,20.10
2018-03-19T02:32:34.474Z,24.93
2018-03-19T02:35:57.856Z,23.53
2018-03-19T02:39:21.933Z,23.93
2018-03-19T02:42:45.300Z,24.43
2018-03-19T02:46:09.413Z,24.57
2018-03-19T02:49:32.706Z,25.40
2018-03-19T02:52:55.992Z,24.77
2018-03-19T02:56:19.271Z,24.70
2018-03-19T02:59:42.569Z,21.40
2018-03-19T03:03:05.926Z,25.13
2018-03-19T03:06:29.218Z,24.10
2018-03-19T03:09:53.454Z,24.37
2018-03-19T03:13:16.773Z,26.20
2018-03-19T03:16:40.073Z,23.23
2018-03-19T03:20:03.356Z,25.90
2018-03-19T03:23:26.640Z,22.27
2018-03-19T03:26:50.473Z,24.87
2018-03-19T03:30:14.523Z,24.90
2018-03-19T03:33:37.846Z,24.00
2018-03-19T03:37:02.020Z,26.17
2018-03-19T03:40:25.310Z,25.20
2018-03-19T03:43:48.603Z,26.47
2018-03-19T03:47:11.873Z,26.23
2018-03-19T03:50:35.167Z,26.87
2018-03-19T03:53:58.469Z,22.70
2018-03-19T03:57:21.856Z,26.50
2018-03-19T04:00:46.032Z,25.77
2018-03-19T04:04:09.354Z,26.97
2018-03-19T04:07:33.440Z,25.63
2018-03-19T04:10:57.509Z,25.07
2018-03-19T04:14:20.891Z,23.30
2018-03-19T04:17:47.564Z,22.03
2018-03-19T04:21:11.074Z,23.30
2018-03-19T04:24:35.298Z,24.63
2018-03-19T04:27:58.679Z,24.07
2018-03-19T04:31:22.808Z,23.37
2018-03-19T04:34:46.168Z,24.27
2018-03-19T04:38:09.542Z,27.23
2018-03-19T04:41:33.604Z,25.87
2018-03-19T04:44:57.098Z,24.97
2018-03-19T04:48:20.415Z,22.80
2018-03-19T04:51:44.491Z,24.97
2018-03-19T04:55:08.564Z,22.80
2018-03-19T04:58:32.007Z,23.27
2018-03-19T05:01:55.360Z,24.47
2018-03-19T05:05:18.691Z,24.30
2018-03-19T05:08:42.120Z,25.27
2018-03-19T05:12:05.466Z,24.57
2018-03-19T05:15:28.803Z,25.43
2018-03-19T05:18:52.924Z,24.73
2018-03-19T05:22:16.313Z,23.80
2018-03-19T05:25:40.352Z,24.00
2018-03-19T05:29:03.646Z,23.47
2018-03-19T05:32:26.938Z,26.37
2018-03-19T05:35:50.333Z,26.97
2018-03-19T05:39:13.662Z,23.40
2018-03-19T05:42:37.066Z,25.40
2018-03-19T05:46:00.384Z,25.27
2018-03-19T05:49:23.708Z,24.67
2018-03-19T05:52:47.030Z,21.83
2018-03-19T05:56:11.074Z,23.77
2018-03-19T05:59:34.390Z,23.80
2018-03-19T06:02:57.852Z,24.23
2018-03-19T06:06:21.146Z,22.60
2018-03-19T06:09:44.478Z,24.20
2018-03-19T06:13:08.572Z,24.93
2018-03-19T06:16:31.905Z,23.97
2018-03-19T06:20:00.670Z,26.40
2018-03-19T06:23:24.033Z,25.70
2018-03-19T06:26:48.168Z,22.83
2018-03-19T06:30:12.445Z,23.13
2018-03-19T06:33:35.985Z,25.40
2018-03-19T06:37:05.344Z,24.03
2018-03-19T06:40:28.698Z,24.90
2018-03-19T06:43:53.184Z,23.77
2018-03-19T06:47:16.586Z,23.53
2018-03-19T06:50:40.004Z,22.23
2018-03-19T06:54:03.342Z,23.30
2018-03-19T06:57:26.663Z,22.63
2018-03-19T07:00:50.718Z,23.37
2018-03-19T07:04:15.020Z,25.27
2018-03-19T07:07:38.370Z,24.33
2018-03-19T07:11:01.656Z,24.03
2018-03-19T07:14:25.006Z,26.37
2018-03-19T07:17:48.270Z,23.77
2018-03-19T07:21:11.570Z,23.07
2018-03-19T07:24:34.862Z,19.67
2018-03-19T07:27:58.172Z,24.17
2018-03-19T07:31:21.512Z,23.33
2018-03-19T07:34:44.864Z,26.23
2018-03-19T07:38:08.187Z,23.13
2018-03-19T07:41:32.230Z,22.93
2018-03-19T07:44:55.565Z,23.53
2018-03-19T07:48:19.726Z,26.13
2018-03-19T07:51:43.038Z,23.93
2018-03-19T07:55:06.340Z,23.60
2018-03-19T07:58:29.696Z,23.23
2018-03-19T08:01:54.624Z,23.43
2018-03-19T08:05:17.916Z,23.33
2018-03-19T08:08:42.015Z,21.77
2018-03-19T08:12:06.139Z,24.40
2018-03-19T08:15:29.398Z,24.23
2018-03-19T08:18:52.810Z,24.20
2018-03-19T08:22:18.048Z,23.97
2018-03-19T08:25:41.488Z,24.40
2018-03-19T08:29:04.820Z,25.70
2018-03-19T08:32:28.140Z,24.17
2018-03-19T08:35:52.226Z,23.90
2018-03-19T08:39:18.574Z,23.37
2018-03-19T08:42:42.684Z,25.73
2018-03-19T08:46:11.385Z,26.20
2018-03-19T08:49:37.313Z,23.57
2018-03-19T08:53:00.778Z,24.10
2018-03-19T08:56:24.776Z,25.60
2018-03-19T08:59:49.622Z,22.70
2018-03-19T09:03:13.836Z,24.13
2018-03-19T09:06:38.204Z,24.97
2018-03-19T09:10:02.399Z,25.03
2018-03-19T09:13:25.680Z,25.80
2018-03-19T09:16:49.002Z,20.57
2018-03-19T09:20:12.403Z,21.83
2018-03-19T09:23:35.696Z,24.70
2018-03-19T09:26:58.996Z,21.87
2018-03-19T09:30:22.302Z,24.37
2018-03-19T09:33:46.372Z,23.80
2018-03-19T09:37:09.682Z,23.23
2018-03-19T09:40:33.737Z,23.37
2018-03-19T09:43:57.014Z,23.40
2018-03-19T09:47:20.298Z,24.20
2018-03-19T09:50:43.631Z,23.80
2018-03-19T09:54:06.926Z,21.63
2018-03-19T09:57:30.310Z,24.20
2018-03-19T10:00:54.629Z,24.33
2018-03-19T10:04:18.725Z,23.90
2018-03-19T10:07:42.056Z,22.17
2018-03-19T10:11:06.108Z,23.43
2018-03-19T10:14:31.048Z,22.60
2018-03-19T10:17:54.364Z,23.63
2018-03-19T10:21:17.652Z,24.43
2018-03-19T10:24:41.067Z,23.77
2018-03-19T10:28:04.556Z,24.00
2018-03-19T10:31:27.956Z,24.47
2018-03-19T10:34:52.015Z,23.30
2018-03-19T10:38:16.415Z,25.60
2018-03-19T10:41:42.051Z,23.37
2018-03-19T10:45:05.529Z,23.53
2018-03-19T10:48:29.701Z,25.07
2018-03-19T10:51:53.110Z,23.10
2018-03-19T10:55:18.070Z,22.20
2018-03-19T10:58:42.236Z,23.60
2018-03-19T11:02:11.891Z,24.23
2018-03-19T11:05:40.794Z,23.00
2018-03-19T11:09:09.617Z,23.07
2018-03-19T11:12:33.688Z,21.53
2018-03-19T11:15:58.945Z,22.07
2018-03-19T11:19:22.902Z,22.30
2018-03-19T11:22:46.308Z,24.10
2018-03-19T11:26:10.432Z,21.97
2018-03-19T11:29:33.752Z,22.20
2018-03-19T11:32:57.065Z,22.40
2018-03-19T11:36:20.360Z,23.77
2018-03-19T11:39:44.020Z,22.90
2018-03-19T11:43:07.362Z,23.30
2018-03-19T11:46:30.662Z,22.63
2018-03-19T11:49:54.142Z,21.53
2018-03-19T11:53:17.476Z,23.23
2018-03-19T11:56:41.585Z,22.10
2018-03-19T12:00:05.540Z,22.70
2018-03-19T12:03:28.848Z,22.30
2018-03-19T12:06:52.150Z,22.97
2018-03-19T12:10:15.462Z,21.13
2018-03-19T12:13:39.028Z,22.97
2018-03-19T12:17:02.391Z,19.03
2018-03-19T12:20:25.726Z,21.57
2018-03-19T12:23:49.023Z,19.40
2018-03-19T12:27:12.412Z,21.87
2018-03-19T12:30:36.582Z,20.93
2018-03-19T12:33:59.962Z,20.70
2018-03-19T12:37:24.134Z,20.73
2018-03-19T12:40:47.512Z,20.53
2018-03-19T12:44:12.829Z,18.90
2018-03-19T12:47:36.933Z,19.17
2018-03-19T12:51:00.240Z,21.70
2018-03-19T12:54:23.538Z,20.97
2018-03-19T12:57:46.904Z,21.97
2018-03-19T13:01:10.215Z,21.53
2018-03-19T13:04:33.519Z,21.17
2018-03-19T13:07:56.829Z,18.47
2018-03-19T13:11:20.194Z,21.70
2018-03-19T13:14:44.342Z,20.83
2018-03-19T13:18:08.036Z,21.60
2018-03-19T13:21:31.347Z,22.07
2018-03-19T13:24:54.688Z,22.03
2018-03-19T13:28:18.046Z,24.13
2018-03-19T13:31:41.747Z,22.60
2018-03-19T13:35:05.268Z,16.23
2018-03-19T13:38:28.743Z,21.80
2018-03-19T13:41:52.133Z,21.70
2018-03-19T13:45:16.358Z,22.03
2018-03-19T13:48:40.603Z,19.97
2018-03-19T13:52:04.702Z,21.10
2018-03-19T13:55:28.785Z,17.93
2018-03-19T13:58:52.126Z,19.73
2018-03-19T14:02:16.212Z,20.13
2018-03-19T14:05:42.465Z,21.47
2018-03-19T14:09:06.661Z,18.70
2018-03-19T14:12:30.724Z,21.37
2018-03-19T14:15:54.777Z,22.50
2018-03-19T14:19:18.742Z,19.97
2018-03-19T14:22:42.831Z,20.77
2018-03-19T14:26:06.929Z,20.53
2018-03-19T14:29:30.228Z,20.50
2018-03-19T14:32:53.545Z,20.53
2018-03-19T14:36:17.637Z,18.23
2018-03-19T14:39:41.716Z,20.10
2018-03-19T14:43:05.779Z,19.93
2018-03-19T14:46:29.094Z,18.87
2018-03-19T14:49:53.141Z,19.33
2018-03-19T14:53:16.455Z,19.40
2018-03-19T14:56:40.540Z,18.73
2018-03-19T15:00:04.612Z,19.70
2018-03-19T15:03:28.175Z,19.83
2018-03-19T15:06:51.501Z,20.77
2018-03-19T15:18:09.443Z,17.77
2018-03-19T15:21:32.743Z,18.87
2018-03-19T15:24:56.219Z,19.50
2018-03-19T15:28:20.540Z,19.23
2018-03-19T15:31:43.850Z,19.13
2018-03-19T15:35:08.524Z,18.53
2018-03-19T15:38:32.593Z,21.23
2018-03-19T15:41:56.732Z,18.60
2018-03-19T15:45:21.113Z,19.37
2018-03-19T15:48:44.406Z,19.17
2018-03-19T15:52:08.475Z,18.00
2018-03-19T15:55:31.785Z,18.30
2018-03-19T15:58:55.917Z,16.93
2018-03-19T16:02:20.219Z,18.30
2018-03-19T16:05:44.596Z,19.60
2018-03-19T16:09:07.916Z,19.40
2018-03-19T16:12:31.213Z,18.47
2018-03-19T16:15:54.520Z,21.20
2018-03-19T16:19:17.808Z,19.53
2018-03-19T16:22:41.922Z,19.70
2018-03-19T16:26:05.230Z,22.47
2018-03-19T16:29:28.563Z,13.47
2018-03-19T16:32:51.848Z,21.23
2018-03-19T16:36:20.674Z,20.57
2018-03-19T16:39:44.059Z,20.17
2018-03-19T16:43:08.127Z,20.83
2018-03-19T16:46:33.772Z,18.13
2018-03-19T16:49:57.056Z,18.43
2018-03-19T16:53:20.399Z,17.30
2018-03-19T16:56:43.676Z,17.20
2018-03-19T17:00:06.947Z,17.83
2018-03-19T17:03:30.253Z,18.47
2018-03-19T17:06:53.565Z,18.13
2018-03-19T17:10:16.874Z,17.47
2018-03-19T17:13:40.157Z,18.17
2018-03-19T17:17:03.457Z,20.00
2018-03-19T17:20:28.912Z,17.20
2018-03-19T17:24:02.628Z,17.20
2018-03-19T17:27:25.973Z,19.10
2018-03-19T17:30:49.331Z,17.50
2018-03-19T17:34:12.724Z,18.90
2018-03-19T17:37:36.830Z,19.47
2018-03-19T17:41:00.128Z,19.27
2018-03-19T17:44:23.491Z,19.23
2018-03-19T17:47:46.756Z,20.60
2018-03-19T17:51:10.030Z,19.10
2018-03-19T17:54:33.316Z,19.17
2018-03-19T17:57:56.592Z,20.00
2018-03-19T18:01:19.892Z,19.07
2018-03-19T18:04:44.159Z,20.20
2018-03-19T18:08:08.200Z,20.70
2018-03-19T18:11:31.480Z,20.70
2018-03-19T18:14:55.654Z,22.40
2018-03-19T18:18:20.157Z,20.63
2018-03-19T18:21:44.518Z,21.60
2018-03-19T18:25:07.940Z,19.57
2018-03-19T18:28:32.274Z,20.30
2018-03-19T18:31:55.670Z,21.70
2018-03-19T18:35:19.796Z,19.07
2018-03-19T18:38:43.297Z,21.20
2018-03-19T18:42:06.741Z,20.20
2018-03-19T18:45:30.300Z,19.13
2018-03-19T18:48:53.719Z,28.20
2018-03-19T18:52:17.319Z,21.50
2018-03-19T18:55:40.877Z,22.10
2018-03-19T18:59:04.376Z,20.07
2018-03-19T19:02:27.659Z,21.63
2018-03-19T19:05:51.420Z,21.27
2018-03-19T19:09:15.597Z,20.60
2018-03-19T19:12:38.908Z,19.83
2018-03-19T19:16:03.054Z,21.37
2018-03-19T19:19:26.406Z,18.23
2018-03-19T19:22:49.840Z,21.43
2018-03-19T19:26:13.112Z,19.83
2018-03-19T19:29:36.425Z,19.20
2018-03-19T19:32:59.771Z,20.77
2018-03-19T19:36:23.157Z,20.47
2018-03-19T19:39:47.202Z,19.20
2018-03-19T19:43:10.713Z,22.17
2018-03-19T19:46:33.979Z,22.07
2018-03-19T19:49:57.278Z,20.27
2018-03-19T19:53:21.782Z,20.67
2018-03-19T19:56:45.083Z,22.00
2018-03-19T20:00:08.339Z,22.50
2018-03-19T20:03:31.665Z,20.87
2018-03-19T20:06:55.001Z,22.43
2018-03-19T20:10:18.287Z,22.13
2018-03-19T20:13:41.591Z,23.17
2018-03-19T20:17:04.978Z,21.17
2018-03-19T20:20:28.289Z,21.17
2018-03-19T20:23:51.618Z,21.20
2018-03-19T20:27:14.943Z,21.13
2018-03-19T20:30:38.279Z,16.13
2018-03-19T20:34:01.661Z,21.90
2018-03-19T20:37:25.009Z,22.03
2018-03-19T20:40:48.284Z,21.23
2018-03-19T20:44:11.604Z,22.53
2018-03-19T20:47:35.732Z,21.37
2018-03-19T20:50:59.029Z,19.30
2018-03-19T20:54:22.381Z,21.20
2018-03-19T20:57:45.736Z,15.43
2018-03-19T21:01:09.163Z,20.67
2018-03-19T21:04:32.499Z,21.10
2018-03-19T21:07:55.826Z,22.20
2018-03-19T21:11:19.227Z,22.87
2018-03-19T21:14:42.591Z,22.33
2018-03-19T21:18:05.992Z,16.73
2018-03-19T21:21:29.291Z,20.93
2018-03-19T21:24:52.599Z,21.70
2018-03-19T21:28:15.957Z,21.00
2018-03-19T21:31:39.282Z,21.40
2018-03-19T21:35:03.404Z,21.83
2018-03-19T21:38:26.680Z,22.17
2018-03-19T21:41:50.016Z,23.10
2018-03-19T21:45:13.305Z,22.53
2018-03-19T21:48:36.583Z,24.33
2018-03-19T21:51:59.855Z,23.33
2018-03-19T21:55:23.153Z,22.43
2018-03-19T21:58:46.436Z,23.63
2018-03-19T22:02:09.700Z,22.47
2018-03-19T22:05:33.036Z,19.53
2018-03-19T22:08:56.377Z,25.10
2018-03-19T22:12:20.843Z,23.87
2018-03-19T22:15:44.882Z,21.73
2018-03-19T22:19:08.987Z,25.40
2018-03-19T22:22:32.341Z,25.87
2018-03-19T22:25:55.769Z,24.40
2018-03-19T22:29:19.052Z,24.33
2018-03-19T22:32:42.335Z,23.73
2018-03-19T22:36:05.678Z,21.53
2018-03-19T22:39:30.317Z,24.03
2018-03-19T22:42:54.369Z,23.37
2018-03-19T22:46:17.646Z,22.53
2018-03-19T22:49:40.967Z,23.60
2018-03-19T22:53:04.284Z,24.43
2018-03-19T22:56:27.652Z,22.90
2018-03-19T22:59:50.940Z,24.43
2018-03-19T23:03:14.299Z,21.63
2018-03-19T23:06:37.630Z,23.23
2018-03-19T23:10:00.934Z,21.20
2018-03-19T23:13:25.241Z,23.87
2018-03-19T23:16:48.566Z,22.63
2018-03-19T23:20:12.600Z,21.80
2018-03-19T23:23:35.870Z,23.03
2018-03-19T23:26:59.171Z,22.50
2018-03-19T23:30:22.453Z,20.83
2018-03-19T23:33:45.729Z,23.50
2018-03-19T23:37:09.020Z,24.10
2018-03-19T23:40:32.309Z,18.60
2018-03-19T23:43:55.602Z,18.90
2018-03-19T23:47:18.928Z,21.13
2018-03-19T23:50:43.071Z,21.13
2018-03-19T23:54:07.143Z,21.70
2018-03-19T23:57:30.560Z,21.13
